APL Norway — A8NC4 — position and weather

sailwx.info

Track history (hours):
 
Tides and Currents Weather Stations Pressure Air Temp Water Temp Dewpoint Dewpoint Depression Visibility Wind Speed Wind Dir Waves Ship Positions

APL Norway

Last reported at 2018-Feb-14 14:11 UTC. Time now 2018-Feb-17 21:54 UTC.
Position N 01°14' E 103°27'.

Length 295 m; draft 13.9 m.

Type: Cargo ship. MMSI: 636013456.

Date/timePositionNaut miles runAvg speedWind from/ knotsBaromVisibWave heightAir tempDewpointWater temp
2018-Feb-14 14:11N 01°14' E 103°27'519.9
2018-Feb-14 13:56N 01°13' E 103°32'716.0
2018-Feb-14 13:30N 01°11' E 103°39'4 9.0
2018-Feb-14 13:01N 01°14' E 103°42'4 8.1
2018-Feb-14 12:31N 01°17' E 103°45'1 2.0
2018-Feb-14 11:59N 01°17' E 103°46'0 0.0
2018-Feb-14 11:23N 01°17' E 103°46'0 0.0
2018-Feb-14 10:59N 01°17' E 103°46'0 0.0
2018-Feb-14 10:26N 01°17' E 103°46'0 0.0
2018-Feb-14 09:59N 01°17' E 103°46'0 0.0
2018-Feb-14 09:29N 01°17' E 103°46'0 0.0
2018-Feb-14 08:59N 01°17' E 103°46'0 0.0
2018-Feb-14 08:28N 01°17' E 103°46'0 0.0
2018-Feb-14 07:59N 01°17' E 103°46'0 0.1
2018-Feb-14 07:28N 01°17' E 103°46'0 0.1
2018-Feb-14 06:59N 01°17' E 103°46'0 0.0
2018-Feb-14 06:26N 01°17' E 103°46'0 0.0
2018-Feb-14 05:59N 01°17' E 103°46'0 0.0
2018-Feb-14 05:29N 01°17' E 103°46'0 0.0
2018-Feb-14 04:58N 01°17' E 103°46'0 0.0
2018-Feb-14 04:28N 01°17' E 103°46'0 0.1
2018-Feb-14 03:59N 01°17' E 103°46'0 0.1
2018-Feb-14 03:29N 01°17' E 103°46'0 0.0
2018-Feb-14 02:59N 01°17' E 103°46'0 0.0
2018-Feb-14 02:28N 01°17' E 103°46'0 0.0
2018-Feb-14 01:58N 01°17' E 103°46'0 0.0
2018-Feb-14 01:29N 01°17' E 103°46'0 0.0
2018-Feb-14 00:59N 01°17' E 103°46'0 0.0
2018-Feb-14 00:29N 01°17' E 103°46'0 0.0
2018-Feb-13 23:59N 01°17' E 103°46'0 0.0
2018-Feb-13 23:28N 01°17' E 103°46'0 0.0
2018-Feb-13 22:59N 01°17' E 103°46'0 0.0
2018-Feb-13 22:28N 01°17' E 103°46'0 0.0
2018-Feb-13 21:58N 01°17' E 103°46'0 0.0
2018-Feb-13 21:28N 01°17' E 103°46'0 0.0
2018-Feb-13 20:58N 01°17' E 103°46'0 0.0
2018-Feb-13 20:29N 01°17' E 103°46'0 0.0
2018-Feb-13 19:59N 01°17' E 103°46'0 0.0
2018-Feb-13 19:28N 01°17' E 103°46'0 0.0
2018-Feb-13 18:59N 01°17' E 103°46'0 0.0
2018-Feb-13 18:26N 01°17' E 103°46'0 0.0
2018-Feb-13 17:49N 01°17' E 103°46'0 0.5
2018-Feb-13 17:30N 01°17' E 103°46'1 2.3
2018-Feb-13 17:00N 01°17' E 103°45'0 0.3
2018-Feb-13 16:30N 01°17' E 103°45'0 0.4
2018-Feb-13 15:58N 01°17' E 103°45'2 5.3
2018-Feb-13 15:30N 01°15' E 103°46'3 6.7
2018-Feb-13 15:00N 01°13' E 103°49'5 9.2
2018-Feb-13 14:30N 01°13' E 103°53'5 9.9
2018-Feb-13 14:00N 01°15' E 103°58'  
2018-Feb-09 08:01N 23°27' E 117°50'  
Track history (hours):
 
Tides and Currents Weather Stations Pressure Air Temp Water Temp Dewpoint Dewpoint Depression Visibility Wind Speed Wind Dir Waves Ship Positions

APL Norway

Last reported at 2018-Feb-14 14:11 UTC. Time now 2018-Feb-17 21:54 UTC.
Position N 01°14' E 103°27'.

Length 295 m; draft 13.9 m.

Type: Cargo ship. MMSI: 636013456.

Date/timePositionNaut miles runAvg speedWind from/ knotsBaromVisibWave heightAir tempDewpointWater temp
2018-Feb-14 14:11N 01°14' E 103°27'519.9
2018-Feb-14 13:56N 01°13' E 103°32'716.0
2018-Feb-14 13:30N 01°11' E 103°39'4 9.0
2018-Feb-14 13:01N 01°14' E 103°42'4 8.1
2018-Feb-14 12:31N 01°17' E 103°45'1 2.0
2018-Feb-14 11:59N 01°17' E 103°46'0 0.0
2018-Feb-14 11:23N 01°17' E 103°46'0 0.0
2018-Feb-14 10:59N 01°17' E 103°46'0 0.0
2018-Feb-14 10:26N 01°17' E 103°46'0 0.0
2018-Feb-14 09:59N 01°17' E 103°46'0 0.0
2018-Feb-14 09:29N 01°17' E 103°46'0 0.0
2018-Feb-14 08:59N 01°17' E 103°46'0 0.0
2018-Feb-14 08:28N 01°17' E 103°46'0 0.0
2018-Feb-14 07:59N 01°17' E 103°46'0 0.1
2018-Feb-14 07:28N 01°17' E 103°46'0 0.1
2018-Feb-14 06:59N 01°17' E 103°46'0 0.0
2018-Feb-14 06:26N 01°17' E 103°46'0 0.0
2018-Feb-14 05:59N 01°17' E 103°46'0 0.0
2018-Feb-14 05:29N 01°17' E 103°46'0 0.0
2018-Feb-14 04:58N 01°17' E 103°46'0 0.0
2018-Feb-14 04:28N 01°17' E 103°46'0 0.1
2018-Feb-14 03:59N 01°17' E 103°46'0 0.1
2018-Feb-14 03:29N 01°17' E 103°46'0 0.0
2018-Feb-14 02:59N 01°17' E 103°46'0 0.0
2018-Feb-14 02:28N 01°17' E 103°46'0 0.0
2018-Feb-14 01:58N 01°17' E 103°46'0 0.0
2018-Feb-14 01:29N 01°17' E 103°46'0 0.0
2018-Feb-14 00:59N 01°17' E 103°46'0 0.0
2018-Feb-14 00:29N 01°17' E 103°46'0 0.0
2018-Feb-13 23:59N 01°17' E 103°46'0 0.0
2018-Feb-13 23:28N 01°17' E 103°46'0 0.0
2018-Feb-13 22:59N 01°17' E 103°46'0 0.0
2018-Feb-13 22:28N 01°17' E 103°46'0 0.0
2018-Feb-13 21:58N 01°17' E 103°46'0 0.0
2018-Feb-13 21:28N 01°17' E 103°46'0 0.0
2018-Feb-13 20:58N 01°17' E 103°46'0 0.0
2018-Feb-13 20:29N 01°17' E 103°46'0 0.0
2018-Feb-13 19:59N 01°17' E 103°46'0 0.0
2018-Feb-13 19:28N 01°17' E 103°46'0 0.0
2018-Feb-13 18:59N 01°17' E 103°46'0 0.0
2018-Feb-13 18:26N 01°17' E 103°46'0 0.0
2018-Feb-13 17:49N 01°17' E 103°46'0 0.5
2018-Feb-13 17:30N 01°17' E 103°46'1 2.3
2018-Feb-13 17:00N 01°17' E 103°45'0 0.3
2018-Feb-13 16:30N 01°17' E 103°45'0 0.4
2018-Feb-13 15:58N 01°17' E 103°45'2 5.3
2018-Feb-13 15:30N 01°15' E 103°46'3 6.7
2018-Feb-13 15:00N 01°13' E 103°49'5 9.2
2018-Feb-13 14:30N 01°13' E 103°53'5 9.9
2018-Feb-13 14:00N 01°15' E 103°58'  
2018-Feb-09 08:01N 23°27' E 117°50'  

Dump ship's entire track history